sensor_id;sensor_type;location;lat;lon;timestamp;temperature;humidity
46085;DHT22;31823;47.032;8.310;2023-11-22T00:00:13;5.70;99.90
46085;DHT22;31823;47.032;8.310;2023-11-22T00:02:39;5.80;99.90
46085;DHT22;31823;47.032;8.310;2023-11-22T00:05:06;5.80;99.90
46085;DHT22;31823;47.032;8.310;2023-11-22T00:07:32;5.80;99.90
46085;DHT22;31823;47.032;8.310;2023-11-22T00:09:58;5.90;99.90
46085;DHT22;31823;47.032;8.310;2023-11-22T00:12:26;5.90;99.90
46085;DHT22;31823;47.032;8.310;2023-11-22T00:14:53;6.00;99.90
46085;DHT22;31823;47.032;8.310;2023-11-22T00:17:19;6.00;99.90
46085;DHT22;31823;47.032;8.310;2023-11-22T00:19:44;6.10;99.90
46085;DHT22;31823;47.032;8.310;2023-11-22T00:22:11;6.10;99.90
46085;DHT22;31823;47.032;8.310;2023-11-22T00:24:40;6.10;99.90
46085;DHT22;31823;47.032;8.310;2023-11-22T00:27:06;6.10;99.90
46085;DHT22;31823;47.032;8.310;2023-11-22T00:29:32;6.20;99.90
46085;DHT22;31823;47.032;8.310;2023-11-22T00:31:58;6.20;99.90
46085;DHT22;31823;47.032;8.310;2023-11-22T00:34:24;6.20;99.90
46085;DHT22;31823;47.032;8.310;2023-11-22T00:36:50;6.20;99.90
46085;DHT22;31823;47.032;8.310;2023-11-22T00:39:16;6.10;99.90
46085;DHT22;31823;47.032;8.310;2023-11-22T00:41:42;6.20;99.90
46085;DHT22;31823;47.032;8.310;2023-11-22T00:44:09;6.20;99.90
46085;DHT22;31823;47.032;8.310;2023-11-22T00:46:35;6.30;99.90
46085;DHT22;31823;47.032;8.310;2023-11-22T00:49:03;6.20;99.90
46085;DHT22;31823;47.032;8.310;2023-11-22T00:51:30;6.20;99.90
46085;DHT22;31823;47.032;8.310;2023-11-22T00:53:57;6.10;99.90
46085;DHT22;31823;47.032;8.310;2023-11-22T00:56:23;6.10;99.90
46085;DHT22;31823;47.032;8.310;2023-11-22T00:58:48;6.10;99.90
46085;DHT22;31823;47.032;8.310;2023-11-22T01:01:16;6.20;99.90
46085;DHT22;31823;47.032;8.310;2023-11-22T01:03:41;6.10;99.90
46085;DHT22;31823;47.032;8.310;2023-11-22T01:06:07;6.10;99.90
46085;DHT22;31823;47.032;8.310;2023-11-22T01:08:32;6.10;99.90
46085;DHT22;31823;47.032;8.310;2023-11-22T01:10:58;6.10;99.90
46085;DHT22;31823;47.032;8.310;2023-11-22T01:13:25;6.10;99.90
46085;DHT22;31823;47.032;8.310;2023-11-22T01:15:50;6.10;99.90
46085;DHT22;31823;47.032;8.310;2023-11-22T01:18:16;6.10;99.90
46085;DHT22;31823;47.032;8.310;2023-11-22T01:20:42;6.10;99.90
46085;DHT22;31823;47.032;8.310;2023-11-22T01:23:07;6.10;99.90
46085;DHT22;31823;47.032;8.310;2023-11-22T01:25:33;6.10;99.90
46085;DHT22;31823;47.032;8.310;2023-11-22T01:27:58;6.10;99.90
46085;DHT22;31823;47.032;8.310;2023-11-22T01:30:24;6.10;99.90
46085;DHT22;31823;47.032;8.310;2023-11-22T01:32:50;6.10;99.90
46085;DHT22;31823;47.032;8.310;2023-11-22T01:35:15;6.10;99.90
46085;DHT22;31823;47.032;8.310;2023-11-22T01:37:41;6.10;99.90
46085;DHT22;31823;47.032;8.310;2023-11-22T01:40:08;6.10;99.90
46085;DHT22;31823;47.032;8.310;2023-11-22T01:42:34;6.10;99.90
46085;DHT22;31823;47.032;8.310;2023-11-22T01:45:02;6.10;99.90
46085;DHT22;31823;47.032;8.310;2023-11-22T01:47:29;6.10;99.90
46085;DHT22;31823;47.032;8.310;2023-11-22T01:49:54;6.20;99.90
46085;DHT22;31823;47.032;8.310;2023-11-22T01:52:20;6.20;99.90
46085;DHT22;31823;47.032;8.310;2023-11-22T01:54:45;6.10;99.90
46085;DHT22;31823;47.032;8.310;2023-11-22T01:57:12;6.10;99.90
46085;DHT22;31823;47.032;8.310;2023-11-22T01:59:38;6.10;99.90
46085;DHT22;31823;47.032;8.310;2023-11-22T02:02:04;6.20;99.90
46085;DHT22;31823;47.032;8.310;2023-11-22T02:04:29;6.20;99.90
46085;DHT22;31823;47.032;8.310;2023-11-22T02:06:55;6.10;99.90
46085;DHT22;31823;47.032;8.310;2023-11-22T02:09:21;6.20;99.90
46085;DHT22;31823;47.032;8.310;2023-11-22T02:11:47;6.10;99.90
46085;DHT22;31823;47.032;8.310;2023-11-22T02:14:15;6.20;99.90
46085;DHT22;31823;47.032;8.310;2023-11-22T02:16:41;6.20;99.90
46085;DHT22;31823;47.032;8.310;2023-11-22T02:19:08;6.20;99.90
46085;DHT22;31823;47.032;8.310;2023-11-22T02:21:39;6.20;99.90
46085;DHT22;31823;47.032;8.310;2023-11-22T02:24:04;6.20;99.90
46085;DHT22;31823;47.032;8.310;2023-11-22T02:26:30;6.20;99.90
46085;DHT22;31823;47.032;8.310;2023-11-22T02:28:56;6.30;99.90
46085;DHT22;31823;47.032;8.310;2023-11-22T02:31:22;6.30;99.90
46085;DHT22;31823;47.032;8.310;2023-11-22T02:33:49;6.30;99.90
46085;DHT22;31823;47.032;8.310;2023-11-22T02:36:15;6.30;99.90
46085;DHT22;31823;47.032;8.310;2023-11-22T02:38:41;6.30;99.90
46085;DHT22;31823;47.032;8.310;2023-11-22T02:41:07;6.30;99.90
46085;DHT22;31823;47.032;8.310;2023-11-22T02:43:34;6.30;99.90
46085;DHT22;31823;47.032;8.310;2023-11-22T02:46:01;6.40;99.90
46085;DHT22;31823;47.032;8.310;2023-11-22T02:48:26;6.40;99.90
46085;DHT22;31823;47.032;8.310;2023-11-22T02:50:52;6.30;99.90
46085;DHT22;31823;47.032;8.310;2023-11-22T02:53:19;6.30;99.90
46085;DHT22;31823;47.032;8.310;2023-11-22T02:55:45;6.40;99.90
46085;DHT22;31823;47.032;8.310;2023-11-22T02:58:10;6.40;99.90
46085;DHT22;31823;47.032;8.310;2023-11-22T03:00:40;6.30;99.90
46085;DHT22;31823;47.032;8.310;2023-11-22T03:03:06;6.30;99.90
46085;DHT22;31823;47.032;8.310;2023-11-22T03:05:35;6.20;99.90
46085;DHT22;31823;47.032;8.310;2023-11-22T03:08:03;6.20;99.90
46085;DHT22;31823;47.032;8.310;2023-11-22T03:10:28;6.20;99.90
46085;DHT22;31823;47.032;8.310;2023-11-22T03:12:55;6.30;99.90
46085;DHT22;31823;47.032;8.310;2023-11-22T03:15:21;6.30;99.90
46085;DHT22;31823;47.032;8.310;2023-11-22T03:17:46;6.30;99.90
46085;DHT22;31823;47.032;8.310;2023-11-22T03:20:14;6.30;99.90
46085;DHT22;31823;47.032;8.310;2023-11-22T03:22:41;6.30;99.90
46085;DHT22;31823;47.032;8.310;2023-11-22T03:25:10;6.30;99.90
46085;DHT22;31823;47.032;8.310;2023-11-22T03:27:37;6.30;99.90
46085;DHT22;31823;47.032;8.310;2023-11-22T03:30:03;6.30;99.90
46085;DHT22;31823;47.032;8.310;2023-11-22T03:32:29;6.30;99.90
46085;DHT22;31823;47.032;8.310;2023-11-22T03:34:55;6.20;99.90
46085;DHT22;31823;47.032;8.310;2023-11-22T03:37:21;6.20;99.90
46085;DHT22;31823;47.032;8.310;2023-11-22T03:39:50;6.10;99.90
46085;DHT22;31823;47.032;8.310;2023-11-22T03:42:16;6.10;99.90
46085;DHT22;31823;47.032;8.310;2023-11-22T03:44:42;6.10;99.90
46085;DHT22;31823;47.032;8.310;2023-11-22T03:47:09;6.10;99.90
46085;DHT22;31823;47.032;8.310;2023-11-22T03:49:36;6.10;99.90
46085;DHT22;31823;47.032;8.310;2023-11-22T03:52:02;6.20;99.90
46085;DHT22;31823;47.032;8.310;2023-11-22T03:54:27;6.20;99.90
46085;DHT22;31823;47.032;8.310;2023-11-22T03:56:53;6.20;99.90
46085;DHT22;31823;47.032;8.310;2023-11-22T03:59:19;6.20;99.90
46085;DHT22;31823;47.032;8.310;2023-11-22T04:01:44;6.20;99.90
46085;DHT22;31823;47.032;8.310;2023-11-22T04:04:10;6.10;99.90
46085;DHT22;31823;47.032;8.310;2023-11-22T04:06:36;6.00;99.90
46085;DHT22;31823;47.032;8.310;2023-11-22T04:09:01;6.00;99.90
46085;DHT22;31823;47.032;8.310;2023-11-22T04:11:27;6.10;99.90
46085;DHT22;31823;47.032;8.310;2023-11-22T04:13:55;6.20;99.90
46085;DHT22;31823;47.032;8.310;2023-11-22T04:16:21;6.10;99.90
46085;DHT22;31823;47.032;8.310;2023-11-22T04:18:46;6.10;99.90
46085;DHT22;31823;47.032;8.310;2023-11-22T04:21:12;6.20;99.90
46085;DHT22;31823;47.032;8.310;2023-11-22T04:23:37;6.20;99.90
46085;DHT22;31823;47.032;8.310;2023-11-22T04:26:03;6.20;99.90
46085;DHT22;31823;47.032;8.310;2023-11-22T04:28:29;6.20;99.90
46085;DHT22;31823;47.032;8.310;2023-11-22T04:30:56;6.20;99.90
46085;DHT22;31823;47.032;8.310;2023-11-22T04:33:22;6.20;99.90
46085;DHT22;31823;47.032;8.310;2023-11-22T04:35:48;6.30;99.90
46085;DHT22;31823;47.032;8.310;2023-11-22T04:38:14;6.30;99.90
46085;DHT22;31823;47.032;8.310;2023-11-22T04:40:39;6.20;99.90
46085;DHT22;31823;47.032;8.310;2023-11-22T04:43:05;6.10;99.90
46085;DHT22;31823;47.032;8.310;2023-11-22T04:45:31;6.10;99.90
46085;DHT22;31823;47.032;8.310;2023-11-22T04:47:56;6.10;99.90
46085;DHT22;31823;47.032;8.310;2023-11-22T04:50:25;6.10;99.90
46085;DHT22;31823;47.032;8.310;2023-11-22T04:52:51;6.00;99.90
46085;DHT22;31823;47.032;8.310;2023-11-22T04:55:17;6.10;99.90
46085;DHT22;31823;47.032;8.310;2023-11-22T04:57:43;6.10;99.90
46085;DHT22;31823;47.032;8.310;2023-11-22T05:00:09;6.10;99.90
46085;DHT22;31823;47.032;8.310;2023-11-22T05:02:35;6.10;99.90
46085;DHT22;31823;47.032;8.310;2023-11-22T05:05:01;6.20;99.90
46085;DHT22;31823;47.032;8.310;2023-11-22T05:07:26;6.10;99.90
46085;DHT22;31823;47.032;8.310;2023-11-22T05:09:52;6.10;99.90
46085;DHT22;31823;47.032;8.310;2023-11-22T05:12:17;6.10;99.90
46085;DHT22;31823;47.032;8.310;2023-11-22T05:14:43;6.10;99.90
46085;DHT22;31823;47.032;8.310;2023-11-22T05:17:10;6.10;99.90
46085;DHT22;31823;47.032;8.310;2023-11-22T05:19:37;6.10;99.90
46085;DHT22;31823;47.032;8.310;2023-11-22T05:22:03;6.10;99.90
46085;DHT22;31823;47.032;8.310;2023-11-22T05:24:29;6.10;99.90
46085;DHT22;31823;47.032;8.310;2023-11-22T05:26:54;6.10;99.90
46085;DHT22;31823;47.032;8.310;2023-11-22T05:29:20;6.00;99.90
46085;DHT22;31823;47.032;8.310;2023-11-22T05:31:46;6.00;99.90
46085;DHT22;31823;47.032;8.310;2023-11-22T05:34:11;6.00;99.90
46085;DHT22;31823;47.032;8.310;2023-11-22T05:36:37;6.00;99.90
46085;DHT22;31823;47.032;8.310;2023-11-22T05:39:02;6.00;99.90
46085;DHT22;31823;47.032;8.310;2023-11-22T05:41:29;6.00;99.90
46085;DHT22;31823;47.032;8.310;2023-11-22T05:43:55;6.00;99.90
46085;DHT22;31823;47.032;8.310;2023-11-22T05:46:22;6.00;99.90
46085;DHT22;31823;47.032;8.310;2023-11-22T05:48:56;6.00;99.90
46085;DHT22;31823;47.032;8.310;2023-11-22T05:51:22;6.10;99.90
46085;DHT22;31823;47.032;8.310;2023-11-22T05:53:47;6.10;99.90
46085;DHT22;31823;47.032;8.310;2023-11-22T05:56:13;6.10;99.90
46085;DHT22;31823;47.032;8.310;2023-11-22T05:58:40;6.00;99.90
46085;DHT22;31823;47.032;8.310;2023-11-22T06:01:06;6.10;99.90
46085;DHT22;31823;47.032;8.310;2023-11-22T06:03:32;6.10;99.90
46085;DHT22;31823;47.032;8.310;2023-11-22T06:05:58;6.10;99.90
46085;DHT22;31823;47.032;8.310;2023-11-22T06:08:23;6.10;99.90
46085;DHT22;31823;47.032;8.310;2023-11-22T06:10:49;6.10;99.90
46085;DHT22;31823;47.032;8.310;2023-11-22T06:13:15;6.10;99.90
46085;DHT22;31823;47.032;8.310;2023-11-22T06:15:41;6.10;99.90
46085;DHT22;31823;47.032;8.310;2023-11-22T06:18:07;6.10;99.90
46085;DHT22;31823;47.032;8.310;2023-11-22T06:20:32;6.00;99.90
46085;DHT22;31823;47.032;8.310;2023-11-22T06:22:58;6.00;99.90
46085;DHT22;31823;47.032;8.310;2023-11-22T06:25:24;6.00;99.90
46085;DHT22;31823;47.032;8.310;2023-11-22T06:27:49;6.00;99.90
46085;DHT22;31823;47.032;8.310;2023-11-22T06:30:15;6.10;99.90
46085;DHT22;31823;47.032;8.310;2023-11-22T06:32:41;6.00;99.90
46085;DHT22;31823;47.032;8.310;2023-11-22T06:35:11;6.00;99.90
46085;DHT22;31823;47.032;8.310;2023-11-22T06:37:40;6.10;99.90
46085;DHT22;31823;47.032;8.310;2023-11-22T06:40:07;6.00;99.90
46085;DHT22;31823;47.032;8.310;2023-11-22T06:42:33;6.00;99.90
46085;DHT22;31823;47.032;8.310;2023-11-22T06:44:59;6.00;99.90
46085;DHT22;31823;47.032;8.310;2023-11-22T06:47:26;5.90;99.90
46085;DHT22;31823;47.032;8.310;2023-11-22T06:49:52;5.90;99.90
46085;DHT22;31823;47.032;8.310;2023-11-22T06:52:18;6.00;99.90
46085;DHT22;31823;47.032;8.310;2023-11-22T06:54:44;6.00;99.90
46085;DHT22;31823;47.032;8.310;2023-11-22T06:57:09;5.90;99.90
46085;DHT22;31823;47.032;8.310;2023-11-22T06:59:35;5.90;99.90
46085;DHT22;31823;47.032;8.310;2023-11-22T07:02:00;5.90;99.90
46085;DHT22;31823;47.032;8.310;2023-11-22T07:04:26;5.90;99.90
46085;DHT22;31823;47.032;8.310;2023-11-22T07:06:53;5.80;99.90
46085;DHT22;31823;47.032;8.310;2023-11-22T07:09:18;5.90;99.90
46085;DHT22;31823;47.032;8.310;2023-11-22T07:11:44;6.00;99.90
46085;DHT22;31823;47.032;8.310;2023-11-22T07:14:10;6.10;99.90
46085;DHT22;31823;47.032;8.310;2023-11-22T07:16:36;6.10;99.90
46085;DHT22;31823;47.032;8.310;2023-11-22T07:19:02;6.10;99.90
46085;DHT22;31823;47.032;8.310;2023-11-22T07:21:29;6.10;99.90
46085;DHT22;31823;47.032;8.310;2023-11-22T07:23:55;6.10;99.90
46085;DHT22;31823;47.032;8.310;2023-11-22T07:26:21;6.10;99.90
46085;DHT22;31823;47.032;8.310;2023-11-22T07:28:47;6.10;99.90
46085;DHT22;31823;47.032;8.310;2023-11-22T07:31:13;6.00;99.90
46085;DHT22;31823;47.032;8.310;2023-11-22T07:33:39;5.90;99.90
46085;DHT22;31823;47.032;8.310;2023-11-22T07:36:05;6.00;99.90
46085;DHT22;31823;47.032;8.310;2023-11-22T07:38:31;6.00;99.90
46085;DHT22;31823;47.032;8.310;2023-11-22T07:40:58;6.00;99.90
46085;DHT22;31823;47.032;8.310;2023-11-22T07:43:23;5.90;99.90
46085;DHT22;31823;47.032;8.310;2023-11-22T07:45:49;5.90;99.90
46085;DHT22;31823;47.032;8.310;2023-11-22T07:48:16;5.90;99.90
46085;DHT22;31823;47.032;8.310;2023-11-22T07:50:42;5.90;99.90
46085;DHT22;31823;47.032;8.310;2023-11-22T07:53:14;6.00;99.90
46085;DHT22;31823;47.032;8.310;2023-11-22T07:55:40;6.00;99.90
46085;DHT22;31823;47.032;8.310;2023-11-22T07:58:07;6.00;99.90
46085;DHT22;31823;47.032;8.310;2023-11-22T08:00:33;6.00;99.90
46085;DHT22;31823;47.032;8.310;2023-11-22T08:03:02;6.00;99.90
46085;DHT22;31823;47.032;8.310;2023-11-22T08:05:31;6.10;99.90
46085;DHT22;31823;47.032;8.310;2023-11-22T08:08:03;6.10;99.90
46085;DHT22;31823;47.032;8.310;2023-11-22T08:10:36;6.20;99.90
46085;DHT22;31823;47.032;8.310;2023-11-22T08:13:02;6.20;99.90
46085;DHT22;31823;47.032;8.310;2023-11-22T08:15:29;6.20;99.90
46085;DHT22;31823;47.032;8.310;2023-11-22T08:17:57;6.20;99.90
46085;DHT22;31823;47.032;8.310;2023-11-22T08:20:22;6.20;99.90
46085;DHT22;31823;47.032;8.310;2023-11-22T08:22:51;6.20;99.90
46085;DHT22;31823;47.032;8.310;2023-11-22T08:25:17;6.10;99.90
46085;DHT22;31823;47.032;8.310;2023-11-22T08:27:43;6.20;99.90
46085;DHT22;31823;47.032;8.310;2023-11-22T08:30:10;6.10;99.90
46085;DHT22;31823;47.032;8.310;2023-11-22T08:32:45;6.10;99.90
46085;DHT22;31823;47.032;8.310;2023-11-22T08:35:16;6.10;99.90
46085;DHT22;31823;47.032;8.310;2023-11-22T08:37:43;6.00;99.90
46085;DHT22;31823;47.032;8.310;2023-11-22T08:40:10;5.90;99.90
46085;DHT22;31823;47.032;8.310;2023-11-22T08:42:48;5.90;99.90
46085;DHT22;31823;47.032;8.310;2023-11-22T08:45:14;5.80;99.90
46085;DHT22;31823;47.032;8.310;2023-11-22T08:47:40;5.70;99.90
46085;DHT22;31823;47.032;8.310;2023-11-22T08:50:09;5.80;99.90
46085;DHT22;31823;47.032;8.310;2023-11-22T08:52:40;5.70;99.90
46085;DHT22;31823;47.032;8.310;2023-11-22T08:55:08;5.70;99.90
46085;DHT22;31823;47.032;8.310;2023-11-22T08:57:37;5.70;99.90
46085;DHT22;31823;47.032;8.310;2023-11-22T09:00:06;5.70;99.90
46085;DHT22;31823;47.032;8.310;2023-11-22T09:02:34;5.70;99.90
46085;DHT22;31823;47.032;8.310;2023-11-22T09:05:01;5.60;99.90
46085;DHT22;31823;47.032;8.310;2023-11-22T09:07:30;5.50;99.90
46085;DHT22;31823;47.032;8.310;2023-11-22T09:09:56;5.60;99.90
46085;DHT22;31823;47.032;8.310;2023-11-22T09:12:23;5.50;99.90
46085;DHT22;31823;47.032;8.310;2023-11-22T09:14:49;5.50;99.90
46085;DHT22;31823;47.032;8.310;2023-11-22T09:17:14;5.60;99.90
46085;DHT22;31823;47.032;8.310;2023-11-22T09:19:40;5.60;99.90
46085;DHT22;31823;47.032;8.310;2023-11-22T09:22:06;5.40;99.90
46085;DHT22;31823;47.032;8.310;2023-11-22T09:24:32;5.50;99.90
46085;DHT22;31823;47.032;8.310;2023-11-22T09:26:58;5.50;99.90
46085;DHT22;31823;47.032;8.310;2023-11-22T09:29:26;5.50;99.90
46085;DHT22;31823;47.032;8.310;2023-11-22T09:31:51;5.50;99.90
46085;DHT22;31823;47.032;8.310;2023-11-22T09:34:17;5.50;99.90
46085;DHT22;31823;47.032;8.310;2023-11-22T09:36:43;5.60;99.90
46085;DHT22;31823;47.032;8.310;2023-11-22T09:39:09;5.40;99.90
46085;DHT22;31823;47.032;8.310;2023-11-22T09:41:35;5.40;99.90
46085;DHT22;31823;47.032;8.310;2023-11-22T09:44:01;5.40;99.90
46085;DHT22;31823;47.032;8.310;2023-11-22T09:46:27;5.40;99.90
46085;DHT22;31823;47.032;8.310;2023-11-22T09:48:56;5.40;99.90
46085;DHT22;31823;47.032;8.310;2023-11-22T09:51:29;5.40;99.90
46085;DHT22;31823;47.032;8.310;2023-11-22T09:54:04;5.30;99.90
46085;DHT22;31823;47.032;8.310;2023-11-22T09:56:33;5.30;99.90
46085;DHT22;31823;47.032;8.310;2023-11-22T09:59:00;5.20;99.90
46085;DHT22;31823;47.032;8.310;2023-11-22T10:01:30;5.20;99.90
46085;DHT22;31823;47.032;8.310;2023-11-22T10:04:02;5.20;99.90
46085;DHT22;31823;47.032;8.310;2023-11-22T10:06:29;5.20;99.90
46085;DHT22;31823;47.032;8.310;2023-11-22T10:08:58;5.30;99.90
46085;DHT22;31823;47.032;8.310;2023-11-22T10:11:26;5.30;99.90
46085;DHT22;31823;47.032;8.310;2023-11-22T10:13:51;5.40;99.90
46085;DHT22;31823;47.032;8.310;2023-11-22T10:16:18;5.50;99.90
46085;DHT22;31823;47.032;8.310;2023-11-22T10:18:45;5.40;99.90
46085;DHT22;31823;47.032;8.310;2023-11-22T10:21:25;5.40;99.90
46085;DHT22;31823;47.032;8.310;2023-11-22T10:23:56;5.40;99.90
46085;DHT22;31823;47.032;8.310;2023-11-22T10:26:23;5.50;99.90
46085;DHT22;31823;47.032;8.310;2023-11-22T10:28:52;5.70;99.90
46085;DHT22;31823;47.032;8.310;2023-11-22T10:31:19;5.60;99.90
46085;DHT22;31823;47.032;8.310;2023-11-22T10:33:44;5.60;99.90
46085;DHT22;31823;47.032;8.310;2023-11-22T10:36:10;5.50;99.90
46085;DHT22;31823;47.032;8.310;2023-11-22T10:38:38;5.40;99.90
46085;DHT22;31823;47.032;8.310;2023-11-22T10:41:13;5.30;99.90
46085;DHT22;31823;47.032;8.310;2023-11-22T10:43:39;5.40;99.90
46085;DHT22;31823;47.032;8.310;2023-11-22T10:46:07;5.30;99.90
46085;DHT22;31823;47.032;8.310;2023-11-22T10:48:35;5.30;99.90
46085;DHT22;31823;47.032;8.310;2023-11-22T10:51:03;5.20;99.90
46085;DHT22;31823;47.032;8.310;2023-11-22T10:53:33;5.20;99.90
46085;DHT22;31823;47.032;8.310;2023-11-22T10:56:17;5.00;99.90
46085;DHT22;31823;47.032;8.310;2023-11-22T10:58:50;4.90;99.90
46085;DHT22;31823;47.032;8.310;2023-11-22T11:01:20;5.00;99.90
46085;DHT22;31823;47.032;8.310;2023-11-22T11:04:00;5.00;99.90
46085;DHT22;31823;47.032;8.310;2023-11-22T11:06:32;5.00;99.90
46085;DHT22;31823;47.032;8.310;2023-11-22T11:09:00;5.00;99.90
46085;DHT22;31823;47.032;8.310;2023-11-22T11:11:28;5.10;99.90
46085;DHT22;31823;47.032;8.310;2023-11-22T11:13:54;5.10;99.90
46085;DHT22;31823;47.032;8.310;2023-11-22T11:16:21;5.10;99.90
46085;DHT22;31823;47.032;8.310;2023-11-22T11:18:48;5.00;99.90
46085;DHT22;31823;47.032;8.310;2023-11-22T11:21:15;5.00;99.90
46085;DHT22;31823;47.032;8.310;2023-11-22T11:23:40;5.00;99.90
46085;DHT22;31823;47.032;8.310;2023-11-22T11:26:19;5.00;99.90
46085;DHT22;31823;47.032;8.310;2023-11-22T11:28:49;5.00;99.90
46085;DHT22;31823;47.032;8.310;2023-11-22T11:31:16;5.00;99.90
46085;DHT22;31823;47.032;8.310;2023-11-22T11:36:30;4.80;99.90
46085;DHT22;31823;47.032;8.310;2023-11-22T11:39:00;4.90;99.90
46085;DHT22;31823;47.032;8.310;2023-11-22T11:41:32;4.90;99.90
46085;DHT22;31823;47.032;8.310;2023-11-22T11:44:03;4.90;99.90
46085;DHT22;31823;47.032;8.310;2023-11-22T11:46:32;4.80;99.90
46085;DHT22;31823;47.032;8.310;2023-11-22T11:48:58;4.90;99.90
46085;DHT22;31823;47.032;8.310;2023-11-22T11:51:26;4.90;99.90
46085;DHT22;31823;47.032;8.310;2023-11-22T11:53:52;4.90;99.90
46085;DHT22;31823;47.032;8.310;2023-11-22T11:56:18;4.90;99.90
46085;DHT22;31823;47.032;8.310;2023-11-22T11:58:45;4.90;99.90
46085;DHT22;31823;47.032;8.310;2023-11-22T12:01:16;5.00;99.90
46085;DHT22;31823;47.032;8.310;2023-11-22T12:03:48;4.90;99.90
46085;DHT22;31823;47.032;8.310;2023-11-22T12:06:18;5.00;99.90
46085;DHT22;31823;47.032;8.310;2023-11-22T12:08:45;5.00;99.90
46085;DHT22;31823;47.032;8.310;2023-11-22T12:11:13;5.10;99.90
46085;DHT22;31823;47.032;8.310;2023-11-22T12:13:39;5.10;99.90
46085;DHT22;31823;47.032;8.310;2023-11-22T12:16:09;5.10;99.90
46085;DHT22;31823;47.032;8.310;2023-11-22T12:18:42;5.00;99.90
46085;DHT22;31823;47.032;8.310;2023-11-22T12:21:08;5.00;99.90
46085;DHT22;31823;47.032;8.310;2023-11-22T12:23:38;5.00;99.90
46085;DHT22;31823;47.032;8.310;2023-11-22T12:26:04;4.90;99.90
46085;DHT22;31823;47.032;8.310;2023-11-22T12:28:30;5.00;99.90
46085;DHT22;31823;47.032;8.310;2023-11-22T12:31:08;5.00;99.90
46085;DHT22;31823;47.032;8.310;2023-11-22T12:33:38;5.10;99.90
46085;DHT22;31823;47.032;8.310;2023-11-22T12:36:05;5.10;99.90
46085;DHT22;31823;47.032;8.310;2023-11-22T12:38:31;5.00;99.90
46085;DHT22;31823;47.032;8.310;2023-11-22T12:40:58;5.00;99.90
46085;DHT22;31823;47.032;8.310;2023-11-22T12:43:24;5.00;99.90
46085;DHT22;31823;47.032;8.310;2023-11-22T12:46:06;5.00;99.90
46085;DHT22;31823;47.032;8.310;2023-11-22T12:48:32;5.00;99.90
46085;DHT22;31823;47.032;8.310;2023-11-22T12:50:58;5.10;99.90
46085;DHT22;31823;47.032;8.310;2023-11-22T12:53:25;5.10;99.90
46085;DHT22;31823;47.032;8.310;2023-11-22T12:55:53;5.10;99.90
46085;DHT22;31823;47.032;8.310;2023-11-22T12:58:23;5.10;99.90
46085;DHT22;31823;47.032;8.310;2023-11-22T13:00:51;5.20;99.90
46085;DHT22;31823;47.032;8.310;2023-11-22T13:03:19;5.10;99.90
46085;DHT22;31823;47.032;8.310;2023-11-22T13:05:45;5.10;99.90
46085;DHT22;31823;47.032;8.310;2023-11-22T13:08:12;5.10;99.90
46085;DHT22;31823;47.032;8.310;2023-11-22T13:10:44;5.10;99.90
46085;DHT22;31823;47.032;8.310;2023-11-22T13:13:10;5.10;99.90
46085;DHT22;31823;47.032;8.310;2023-11-22T13:15:36;5.00;99.90
46085;DHT22;31823;47.032;8.310;2023-11-22T13:18:01;5.10;99.90
46085;DHT22;31823;47.032;8.310;2023-11-22T13:20:28;5.10;99.90
46085;DHT22;31823;47.032;8.310;2023-11-22T13:22:54;5.00;99.90
46085;DHT22;31823;47.032;8.310;2023-11-22T13:25:21;5.00;99.90
46085;DHT22;31823;47.032;8.310;2023-11-22T13:27:50;5.10;99.90
46085;DHT22;31823;47.032;8.310;2023-11-22T13:30:16;4.90;99.90
46085;DHT22;31823;47.032;8.310;2023-11-22T13:32:55;4.90;99.90
46085;DHT22;31823;47.032;8.310;2023-11-22T13:35:27;4.90;99.90
46085;DHT22;31823;47.032;8.310;2023-11-22T13:37:59;4.80;99.90
46085;DHT22;31823;47.032;8.310;2023-11-22T13:40:27;4.80;99.90
46085;DHT22;31823;47.032;8.310;2023-11-22T13:42:56;4.80;99.90
46085;DHT22;31823;47.032;8.310;2023-11-22T13:45:22;4.80;99.90
46085;DHT22;31823;47.032;8.310;2023-11-22T13:47:52;4.90;99.90
46085;DHT22;31823;47.032;8.310;2023-11-22T13:50:20;4.90;99.90
46085;DHT22;31823;47.032;8.310;2023-11-22T13:52:52;4.80;99.90
46085;DHT22;31823;47.032;8.310;2023-11-22T13:55:18;4.80;99.90
46085;DHT22;31823;47.032;8.310;2023-11-22T13:57:51;4.80;99.90
46085;DHT22;31823;47.032;8.310;2023-11-22T14:00:21;4.90;99.90
46085;DHT22;31823;47.032;8.310;2023-11-22T14:02:53;4.90;99.90
46085;DHT22;31823;47.032;8.310;2023-11-22T14:05:25;4.90;99.90
46085;DHT22;31823;47.032;8.310;2023-11-22T14:07:52;4.80;99.90
46085;DHT22;31823;47.032;8.310;2023-11-22T14:10:19;4.80;99.90
46085;DHT22;31823;47.032;8.310;2023-11-22T14:12:45;4.80;99.90
46085;DHT22;31823;47.032;8.310;2023-11-22T14:15:14;4.80;99.90
46085;DHT22;31823;47.032;8.310;2023-11-22T14:17:40;4.90;99.90
46085;DHT22;31823;47.032;8.310;2023-11-22T14:20:07;4.80;99.90
46085;DHT22;31823;47.032;8.310;2023-11-22T14:22:38;4.90;99.90
46085;DHT22;31823;47.032;8.310;2023-11-22T14:25:10;4.90;99.90
46085;DHT22;31823;47.032;8.310;2023-11-22T14:27:40;4.80;99.90
46085;DHT22;31823;47.032;8.310;2023-11-22T14:30:11;4.70;99.90
46085;DHT22;31823;47.032;8.310;2023-11-22T14:32:39;4.80;99.90
46085;DHT22;31823;47.032;8.310;2023-11-22T14:35:06;4.80;99.90
46085;DHT22;31823;47.032;8.310;2023-11-22T14:37:35;4.80;99.90
46085;DHT22;31823;47.032;8.310;2023-11-22T14:40:01;4.70;99.90
46085;DHT22;31823;47.032;8.310;2023-11-22T14:42:30;4.80;99.90
46085;DHT22;31823;47.032;8.310;2023-11-22T14:44:57;4.80;99.90
46085;DHT22;31823;47.032;8.310;2023-11-22T14:47:22;4.70;99.90
46085;DHT22;31823;47.032;8.310;2023-11-22T14:49:50;4.80;99.90
46085;DHT22;31823;47.032;8.310;2023-11-22T14:52:16;4.80;99.90
46085;DHT22;31823;47.032;8.310;2023-11-22T14:54:45;4.70;99.90
46085;DHT22;31823;47.032;8.310;2023-11-22T14:57:11;4.70;99.90
46085;DHT22;31823;47.032;8.310;2023-11-22T14:59:38;4.60;99.90
46085;DHT22;31823;47.032;8.310;2023-11-22T15:02:04;4.70;99.90
46085;DHT22;31823;47.032;8.310;2023-11-22T15:04:34;4.70;99.90
46085;DHT22;31823;47.032;8.310;2023-11-22T15:07:02;4.60;99.90
46085;DHT22;31823;47.032;8.310;2023-11-22T15:09:28;4.60;99.90
46085;DHT22;31823;47.032;8.310;2023-11-22T15:11:53;4.60;99.90
46085;DHT22;31823;47.032;8.310;2023-11-22T15:14:23;4.60;99.90
46085;DHT22;31823;47.032;8.310;2023-11-22T15:16:51;4.60;99.90
46085;DHT22;31823;47.032;8.310;2023-11-22T15:19:17;4.60;99.90
46085;DHT22;31823;47.032;8.310;2023-11-22T15:21:43;4.60;99.90
46085;DHT22;31823;47.032;8.310;2023-11-22T15:24:09;4.60;99.90
46085;DHT22;31823;47.032;8.310;2023-11-22T15:26:34;4.50;99.90
46085;DHT22;31823;47.032;8.310;2023-11-22T15:29:00;4.60;99.90
46085;DHT22;31823;47.032;8.310;2023-11-22T15:31:26;4.50;99.90
46085;DHT22;31823;47.032;8.310;2023-11-22T15:33:51;4.40;99.90
46085;DHT22;31823;47.032;8.310;2023-11-22T15:36:17;4.50;99.90
46085;DHT22;31823;47.032;8.310;2023-11-22T15:38:42;4.60;99.90
46085;DHT22;31823;47.032;8.310;2023-11-22T15:41:08;4.50;99.90
46085;DHT22;31823;47.032;8.310;2023-11-22T15:43:34;4.60;99.90
46085;DHT22;31823;47.032;8.310;2023-11-22T15:45:59;4.60;99.90